sensor_id;sensor_type;location;lat;lon;timestamp;pressure;altitude;pressure_sealevel;temperature;humidity
71735;BME280;59577;52.122;5.406;2023-12-22T00:00:56;100290.56;;;5.94;100.00
71735;BME280;59577;52.122;5.406;2023-12-22T00:03:22;100308.25;;;5.95;100.00
71735;BME280;59577;52.122;5.406;2023-12-22T00:05:50;100312.19;;;5.98;100.00
71735;BME280;59577;52.122;5.406;2023-12-22T00:08:17;100307.72;;;6.02;100.00
71735;BME280;59577;52.122;5.406;2023-12-22T00:10:43;100302.69;;;6.00;100.00
71735;BME280;59577;52.122;5.406;2023-12-22T00:13:10;100331.78;;;5.98;100.00
71735;BME280;59577;52.122;5.406;2023-12-22T00:15:36;100341.91;;;5.93;100.00
71735;BME280;59577;52.122;5.406;2023-12-22T00:18:03;100319.41;;;5.85;100.00
71735;BME280;59577;52.122;5.406;2023-12-22T00:20:30;100329.91;;;5.78;100.00
71735;BME280;59577;52.122;5.406;2023-12-22T00:22:56;100345.75;;;5.71;100.00
71735;BME280;59577;52.122;5.406;2023-12-22T00:25:23;100324.50;;;5.65;100.00
71735;BME280;59577;52.122;5.406;2023-12-22T00:27:49;100300.09;;;5.58;100.00
71735;BME280;59577;52.122;5.406;2023-12-22T00:30:16;100329.50;;;5.55;100.00
71735;BME280;59577;52.122;5.406;2023-12-22T00:32:43;100338.88;;;5.49;100.00
71735;BME280;59577;52.122;5.406;2023-12-22T00:35:10;100343.31;;;5.44;100.00
71735;BME280;59577;52.122;5.406;2023-12-22T00:37:36;100340.84;;;5.39;100.00
71735;BME280;59577;52.122;5.406;2023-12-22T00:40:03;100349.53;;;5.36;100.00
71735;BME280;59577;52.122;5.406;2023-12-22T00:42:31;100335.34;;;5.36;100.00
71735;BME280;59577;52.122;5.406;2023-12-22T00:44:58;100324.94;;;5.34;100.00
71735;BME280;59577;52.122;5.406;2023-12-22T00:47:24;100323.50;;;5.37;100.00
71735;BME280;59577;52.122;5.406;2023-12-22T00:49:51;100326.31;;;5.40;100.00
71735;BME280;59577;52.122;5.406;2023-12-22T00:52:17;100326.56;;;5.47;100.00
71735;BME280;59577;52.122;5.406;2023-12-22T00:54:44;100334.28;;;5.49;100.00
71735;BME280;59577;52.122;5.406;2023-12-22T00:57:11;100348.47;;;5.50;100.00
71735;BME280;59577;52.122;5.406;2023-12-22T00:59:38;100349.47;;;5.45;100.00
71735;BME280;59577;52.122;5.406;2023-12-22T01:02:08;100353.59;;;5.42;100.00
71735;BME280;59577;52.122;5.406;2023-12-22T01:04:35;100365.44;;;5.41;100.00
71735;BME280;59577;52.122;5.406;2023-12-22T01:07:01;100365.44;;;5.41;100.00
71735;BME280;59577;52.122;5.406;2023-12-22T01:09:28;100368.47;;;5.40;100.00
71735;BME280;59577;52.122;5.406;2023-12-22T01:11:54;100366.88;;;5.39;100.00
71735;BME280;59577;52.122;5.406;2023-12-22T01:14:21;100374.94;;;5.39;100.00
71735;BME280;59577;52.122;5.406;2023-12-22T01:16:47;100379.53;;;5.38;100.00
71735;BME280;59577;52.122;5.406;2023-12-22T01:19:14;100368.78;;;5.38;100.00
71735;BME280;59577;52.122;5.406;2023-12-22T01:21:41;100376.03;;;5.38;100.00
71735;BME280;59577;52.122;5.406;2023-12-22T01:24:08;100369.91;;;5.37;100.00
71735;BME280;59577;52.122;5.406;2023-12-22T01:26:34;100364.53;;;5.37;100.00
71735;BME280;59577;52.122;5.406;2023-12-22T01:29:01;100377.50;;;5.35;100.00
71735;BME280;59577;52.122;5.406;2023-12-22T01:31:28;100379.06;;;5.36;100.00
71735;BME280;59577;52.122;5.406;2023-12-22T01:33:55;100367.66;;;5.39;100.00
71735;BME280;59577;52.122;5.406;2023-12-22T01:36:21;100358.19;;;5.42;100.00
71735;BME280;59577;52.122;5.406;2023-12-22T01:38:48;100368.13;;;5.41;100.00
71735;BME280;59577;52.122;5.406;2023-12-22T01:41:14;100365.31;;;5.38;100.00
71735;BME280;59577;52.122;5.406;2023-12-22T01:43:41;100366.13;;;5.38;100.00
71735;BME280;59577;52.122;5.406;2023-12-22T01:46:08;100352.22;;;5.36;100.00
71735;BME280;59577;52.122;5.406;2023-12-22T01:48:36;100364.41;;;5.34;100.00
71735;BME280;59577;52.122;5.406;2023-12-22T01:51:04;100357.78;;;5.31;100.00
71735;BME280;59577;52.122;5.406;2023-12-22T01:53:31;100354.06;;;5.23;100.00
71735;BME280;59577;52.122;5.406;2023-12-22T01:56:01;100351.56;;;5.18;100.00
71735;BME280;59577;52.122;5.406;2023-12-22T01:58:29;100364.41;;;5.13;100.00
71735;BME280;59577;52.122;5.406;2023-12-22T02:00:58;100384.59;;;5.10;100.00
71735;BME280;59577;52.122;5.406;2023-12-22T02:03:25;100378.47;;;5.09;100.00
71735;BME280;59577;52.122;5.406;2023-12-22T02:05:52;100366.94;;;5.09;100.00
71735;BME280;59577;52.122;5.406;2023-12-22T02:08:18;100370.72;;;5.08;100.00
71735;BME280;59577;52.122;5.406;2023-12-22T02:10:45;100365.03;;;5.09;100.00
71735;BME280;59577;52.122;5.406;2023-12-22T02:13:12;100370.09;;;5.11;100.00
71735;BME280;59577;52.122;5.406;2023-12-22T02:15:39;100356.81;;;5.15;100.00
71735;BME280;59577;52.122;5.406;2023-12-22T02:18:12;100359.16;;;5.16;100.00
71735;BME280;59577;52.122;5.406;2023-12-22T02:20:41;100347.78;;;5.19;100.00
71735;BME280;59577;52.122;5.406;2023-12-22T02:23:10;100341.75;;;5.22;100.00
71735;BME280;59577;52.122;5.406;2023-12-22T02:25:36;100340.97;;;5.22;100.00
71735;BME280;59577;52.122;5.406;2023-12-22T02:28:11;100332.16;;;5.21;100.00
71735;BME280;59577;52.122;5.406;2023-12-22T02:30:57;100323.31;;;5.21;100.00
71735;BME280;59577;52.122;5.406;2023-12-22T02:33:28;100330.88;;;5.19;100.00
71735;BME280;59577;52.122;5.406;2023-12-22T02:35:59;100335.16;;;5.20;100.00
71735;BME280;59577;52.122;5.406;2023-12-22T02:38:28;100332.91;;;5.22;100.00
71735;BME280;59577;52.122;5.406;2023-12-22T02:40:55;100320.75;;;5.24;100.00
71735;BME280;59577;52.122;5.406;2023-12-22T02:43:22;100333.06;;;5.25;100.00
71735;BME280;59577;52.122;5.406;2023-12-22T02:45:52;100308.78;;;5.22;100.00
71735;BME280;59577;52.122;5.406;2023-12-22T02:48:18;100315.72;;;5.23;100.00
71735;BME280;59577;52.122;5.406;2023-12-22T02:50:45;100319.50;;;5.22;100.00
71735;BME280;59577;52.122;5.406;2023-12-22T02:53:11;100316.63;;;5.27;100.00
71735;BME280;59577;52.122;5.406;2023-12-22T02:55:38;100309.72;;;5.26;100.00
71735;BME280;59577;52.122;5.406;2023-12-22T02:58:04;100315.06;;;5.26;100.00
71735;BME280;59577;52.122;5.406;2023-12-22T03:00:31;100306.66;;;5.27;100.00
71735;BME280;59577;52.122;5.406;2023-12-22T03:02:57;100318.78;;;5.34;100.00
71735;BME280;59577;52.122;5.406;2023-12-22T03:05:24;100320.38;;;5.35;100.00
71735;BME280;59577;52.122;5.406;2023-12-22T03:07:50;100326.63;;;5.39;100.00
71735;BME280;59577;52.122;5.406;2023-12-22T03:10:17;100337.03;;;5.40;100.00
71735;BME280;59577;52.122;5.406;2023-12-22T03:12:44;100338.41;;;5.46;100.00
71735;BME280;59577;52.122;5.406;2023-12-22T03:15:10;100334.41;;;5.53;100.00
71735;BME280;59577;52.122;5.406;2023-12-22T03:17:36;100335.91;;;5.62;100.00
71735;BME280;59577;52.122;5.406;2023-12-22T03:20:03;100346.78;;;5.66;100.00
71735;BME280;59577;52.122;5.406;2023-12-22T03:22:30;100337.72;;;5.71;100.00
71735;BME280;59577;52.122;5.406;2023-12-22T03:24:57;100343.19;;;5.74;100.00
71735;BME280;59577;52.122;5.406;2023-12-22T03:27:23;100353.16;;;5.74;100.00
71735;BME280;59577;52.122;5.406;2023-12-22T03:29:50;100342.53;;;5.77;100.00
71735;BME280;59577;52.122;5.406;2023-12-22T03:32:16;100346.00;;;5.78;100.00
71735;BME280;59577;52.122;5.406;2023-12-22T03:34:43;100342.53;;;5.77;100.00
71735;BME280;59577;52.122;5.406;2023-12-22T03:37:09;100357.44;;;5.75;100.00
71735;BME280;59577;52.122;5.406;2023-12-22T03:39:36;100357.88;;;5.77;100.00
71735;BME280;59577;52.122;5.406;2023-12-22T03:42:02;100376.81;;;5.80;100.00
71735;BME280;59577;52.122;5.406;2023-12-22T03:44:29;100378.38;;;5.81;100.00
71735;BME280;59577;52.122;5.406;2023-12-22T03:46:55;100409.03;;;5.80;100.00
71735;BME280;59577;52.122;5.406;2023-12-22T03:49:23;100410.22;;;5.71;100.00
71735;BME280;59577;52.122;5.406;2023-12-22T03:51:49;100398.31;;;5.59;100.00
71735;BME280;59577;52.122;5.406;2023-12-22T03:54:16;100410.03;;;5.55;100.00
71735;BME280;59577;52.122;5.406;2023-12-22T03:56:43;100402.09;;;5.58;100.00
71735;BME280;59577;52.122;5.406;2023-12-22T03:59:10;100414.75;;;5.58;100.00
71735;BME280;59577;52.122;5.406;2023-12-22T04:01:37;100392.94;;;5.59;100.00
71735;BME280;59577;52.122;5.406;2023-12-22T04:04:04;100400.69;;;5.61;100.00
71735;BME280;59577;52.122;5.406;2023-12-22T04:06:30;100395.19;;;5.57;100.00
71735;BME280;59577;52.122;5.406;2023-12-22T04:08:57;100385.41;;;5.53;100.00
71735;BME280;59577;52.122;5.406;2023-12-22T04:11:24;100391.44;;;5.50;100.00
71735;BME280;59577;52.122;5.406;2023-12-22T04:13:50;100389.88;;;5.49;100.00
71735;BME280;59577;52.122;5.406;2023-12-22T04:16:17;100391.75;;;5.48;100.00
71735;BME280;59577;52.122;5.406;2023-12-22T04:18:43;100399.69;;;5.44;100.00
71735;BME280;59577;52.122;5.406;2023-12-22T04:21:10;100396.22;;;5.44;100.00
71735;BME280;59577;52.122;5.406;2023-12-22T04:23:36;100406.19;;;5.43;100.00
71735;BME280;59577;52.122;5.406;2023-12-22T04:26:03;100403.00;;;5.41;100.00
71735;BME280;59577;52.122;5.406;2023-12-22T04:28:29;100415.97;;;5.39;100.00
71735;BME280;59577;52.122;5.406;2023-12-22T04:30:56;100405.88;;;5.36;100.00
71735;BME280;59577;52.122;5.406;2023-12-22T04:33:22;100410.81;;;5.34;100.00
71735;BME280;59577;52.122;5.406;2023-12-22T04:35:49;100404.19;;;5.32;100.00
71735;BME280;59577;52.122;5.406;2023-12-22T04:38:15;100386.19;;;5.32;100.00
71735;BME280;59577;52.122;5.406;2023-12-22T04:40:42;100399.28;;;5.34;100.00
71735;BME280;59577;52.122;5.406;2023-12-22T04:43:09;100393.59;;;5.35;100.00
71735;BME280;59577;52.122;5.406;2023-12-22T04:45:35;100397.06;;;5.36;100.00
71735;BME280;59577;52.122;5.406;2023-12-22T04:48:03;100391.03;;;5.39;100.00
71735;BME280;59577;52.122;5.406;2023-12-22T04:50:29;100409.19;;;5.42;100.00
71735;BME280;59577;52.122;5.406;2023-12-22T04:52:56;100412.31;;;5.44;100.00
71735;BME280;59577;52.122;5.406;2023-12-22T04:55:22;100416.25;;;5.46;100.00
71735;BME280;59577;52.122;5.406;2023-12-22T04:57:49;100415.91;;;5.48;100.00
71735;BME280;59577;52.122;5.406;2023-12-22T05:00:16;100402.50;;;5.48;100.00
71735;BME280;59577;52.122;5.406;2023-12-22T05:02:42;100412.44;;;5.47;100.00
71735;BME280;59577;52.122;5.406;2023-12-22T05:05:10;100405.97;;;5.49;100.00
71735;BME280;59577;52.122;5.406;2023-12-22T05:07:38;100398.72;;;5.49;100.00
71735;BME280;59577;52.122;5.406;2023-12-22T05:10:05;100392.22;;;5.50;100.00
71735;BME280;59577;52.122;5.406;2023-12-22T05:12:31;100389.19;;;5.52;100.00
71735;BME280;59577;52.122;5.406;2023-12-22T05:14:59;100390.78;;;5.53;100.00
71735;BME280;59577;52.122;5.406;2023-12-22T05:17:25;100390.13;;;5.56;100.00
71735;BME280;59577;52.122;5.406;2023-12-22T05:19:52;100393.59;;;5.56;100.00
71735;BME280;59577;52.122;5.406;2023-12-22T05:22:19;100380.75;;;5.62;100.00
71735;BME280;59577;52.122;5.406;2023-12-22T05:24:45;100374.41;;;5.67;100.00
71735;BME280;59577;52.122;5.406;2023-12-22T05:27:12;100367.38;;;5.74;100.00
71735;BME280;59577;52.122;5.406;2023-12-22T05:29:38;100378.59;;;5.76;100.00
71735;BME280;59577;52.122;5.406;2023-12-22T05:32:05;100378.84;;;5.83;100.00
71735;BME280;59577;52.122;5.406;2023-12-22T05:34:32;100383.66;;;5.90;100.00
71735;BME280;59577;52.122;5.406;2023-12-22T05:36:59;100382.81;;;5.98;100.00
71735;BME280;59577;52.122;5.406;2023-12-22T05:39:25;100370.97;;;5.99;100.00
71735;BME280;59577;52.122;5.406;2023-12-22T05:41:52;100374.44;;;6.00;100.00
71735;BME280;59577;52.122;5.406;2023-12-22T05:44:18;100371.09;;;6.03;100.00
71735;BME280;59577;52.122;5.406;2023-12-22T05:46:45;100373.44;;;6.05;100.00
71735;BME280;59577;52.122;5.406;2023-12-22T05:49:11;100372.44;;;6.09;100.00
71735;BME280;59577;52.122;5.406;2023-12-22T05:51:39;100373.47;;;6.17;100.00
71735;BME280;59577;52.122;5.406;2023-12-22T05:54:09;100379.72;;;6.21;100.00
71735;BME280;59577;52.122;5.406;2023-12-22T05:56:37;100380.31;;;6.27;100.00
71735;BME280;59577;52.122;5.406;2023-12-22T05:59:03;100377.19;;;6.25;100.00
71735;BME280;59577;52.122;5.406;2023-12-22T06:01:30;100394.09;;;6.25;100.00
71735;BME280;59577;52.122;5.406;2023-12-22T06:03:56;100383.66;;;6.24;100.00
71735;BME280;59577;52.122;5.406;2023-12-22T06:06:23;100381.31;;;6.22;100.00
71735;BME280;59577;52.122;5.406;2023-12-22T06:08:49;100377.53;;;6.23;100.00
71735;BME280;59577;52.122;5.406;2023-12-22T06:11:16;100369.47;;;6.23;100.00
71735;BME280;59577;52.122;5.406;2023-12-22T06:13:43;100369.13;;;6.25;100.00
71735;BME280;59577;52.122;5.406;2023-12-22T06:16:13;100362.28;;;6.27;100.00
71735;BME280;59577;52.122;5.406;2023-12-22T06:18:41;100375.19;;;6.34;100.00
71735;BME280;59577;52.122;5.406;2023-12-22T06:21:09;100375.63;;;6.36;100.00
71735;BME280;59577;52.122;5.406;2023-12-22T06:23:36;100375.06;;;6.43;100.00
71735;BME280;59577;52.122;5.406;2023-12-22T06:26:09;100386.72;;;6.47;100.00
71735;BME280;59577;52.122;5.406;2023-12-22T06:28:36;100375.63;;;6.48;100.00
71735;BME280;59577;52.122;5.406;2023-12-22T06:31:04;100367.69;;;6.52;100.00
71735;BME280;59577;52.122;5.406;2023-12-22T06:33:30;100364.22;;;6.51;100.00
71735;BME280;59577;52.122;5.406;2023-12-22T06:35:57;100366.34;;;6.58;100.00
71735;BME280;59577;52.122;5.406;2023-12-22T06:38:23;100370.97;;;6.57;100.00
71735;BME280;59577;52.122;5.406;2023-12-22T06:40:50;100362.63;;;6.63;100.00
71735;BME280;59577;52.122;5.406;2023-12-22T06:43:16;100373.28;;;6.59;100.00
71735;BME280;59577;52.122;5.406;2023-12-22T06:45:43;100377.22;;;6.62;100.00
71735;BME280;59577;52.122;5.406;2023-12-22T06:48:09;100368.00;;;6.63;100.00
71735;BME280;59577;52.122;5.406;2023-12-22T06:50:36;100368.00;;;6.63;100.00
71735;BME280;59577;52.122;5.406;2023-12-22T06:53:04;100370.38;;;6.64;100.00
71735;BME280;59577;52.122;5.406;2023-12-22T06:55:44;100373.16;;;6.68;100.00
71735;BME280;59577;52.122;5.406;2023-12-22T06:58:11;100362.09;;;6.69;100.00
71735;BME280;59577;52.122;5.406;2023-12-22T07:00:40;100367.47;;;6.69;100.00
71735;BME280;59577;52.122;5.406;2023-12-22T07:03:07;100363.78;;;6.74;100.00
71735;BME280;59577;52.122;5.406;2023-12-22T07:05:33;100363.53;;;6.79;100.00
71735;BME280;59577;52.122;5.406;2023-12-22T07:08:02;100352.56;;;6.84;100.00
71735;BME280;59577;52.122;5.406;2023-12-22T07:10:29;100360.41;;;6.89;100.00
71735;BME280;59577;52.122;5.406;2023-12-22T07:12:55;100362.75;;;6.91;100.00
71735;BME280;59577;52.122;5.406;2023-12-22T07:15:22;100354.34;;;6.92;100.00
71735;BME280;59577;52.122;5.406;2023-12-22T07:17:48;100354.34;;;6.92;100.00
71735;BME280;59577;52.122;5.406;2023-12-22T07:20:15;100356.72;;;6.94;100.00
71735;BME280;59577;52.122;5.406;2023-12-22T07:22:44;100358.94;;;6.92;100.00
71735;BME280;59577;52.122;5.406;2023-12-22T07:25:12;100391.31;;;6.95;100.00
71735;BME280;59577;52.122;5.406;2023-12-22T07:27:40;100377.63;;;7.01;100.00
71735;BME280;59577;52.122;5.406;2023-12-22T07:30:07;100378.09;;;7.03;100.00
71735;BME280;59577;52.122;5.406;2023-12-22T07:32:33;100377.31;;;7.02;100.00
71735;BME280;59577;52.122;5.406;2023-12-22T07:35:00;100375.41;;;7.03;100.00
71735;BME280;59577;52.122;5.406;2023-12-22T07:37:27;100379.31;;;7.05;100.00
71735;BME280;59577;52.122;5.406;2023-12-22T07:39:53;100375.84;;;7.05;100.00
71735;BME280;59577;52.122;5.406;2023-12-22T07:42:20;100372.03;;;7.06;100.00
71735;BME280;59577;52.122;5.406;2023-12-22T07:44:46;100374.81;;;7.09;100.00
71735;BME280;59577;52.122;5.406;2023-12-22T07:47:13;100379.09;;;7.10;100.00
71735;BME280;59577;52.122;5.406;2023-12-22T07:49:40;100379.88;;;7.11;100.00
71735;BME280;59577;52.122;5.406;2023-12-22T07:52:07;100373.94;;;7.05;100.00
71735;BME280;59577;52.122;5.406;2023-12-22T07:54:33;100361.84;;;6.99;100.00
71735;BME280;59577;52.122;5.406;2023-12-22T07:57:00;100370.25;;;6.97;100.00
71735;BME280;59577;52.122;5.406;2023-12-22T07:59:27;100370.94;;;6.94;100.00
71735;BME280;59577;52.122;5.406;2023-12-22T08:01:57;100376.22;;;6.91;100.00
71735;BME280;59577;52.122;5.406;2023-12-22T08:04:24;100393.03;;;6.88;100.00
71735;BME280;59577;52.122;5.406;2023-12-22T08:06:51;100392.25;;;6.87;100.00
71735;BME280;59577;52.122;5.406;2023-12-22T08:09:19;100402.19;;;6.87;100.00
71735;BME280;59577;52.122;5.406;2023-12-22T08:11:45;100399.50;;;6.87;100.00
71735;BME280;59577;52.122;5.406;2023-12-22T08:14:13;100385.63;;;6.85;100.00
71735;BME280;59577;52.122;5.406;2023-12-22T08:16:40;100384.94;;;6.88;100.00
71735;BME280;59577;52.122;5.406;2023-12-22T08:19:06;100388.88;;;6.90;100.00
71735;BME280;59577;52.122;5.406;2023-12-22T08:21:33;100390.09;;;6.93;100.00
71735;BME280;59577;52.122;5.406;2023-12-22T08:24:11;100384.38;;;6.94;100.00
71735;BME280;59577;52.122;5.406;2023-12-22T08:26:51;100369.22;;;7.02;100.00
71735;BME280;59577;52.122;5.406;2023-12-22T08:29:18;100359.72;;;7.05;100.00
71735;BME280;59577;52.122;5.406;2023-12-22T08:31:46;100356.34;;;7.08;100.00
71735;BME280;59577;52.122;5.406;2023-12-22T08:34:12;100344.44;;;7.09;100.00
71735;BME280;59577;52.122;5.406;2023-12-22T08:36:39;100339.06;;;7.09;100.00
71735;BME280;59577;52.122;5.406;2023-12-22T08:39:06;100351.06;;;7.11;100.00
71735;BME280;59577;52.122;5.406;2023-12-22T08:41:34;100341.50;;;7.14;100.00
71735;BME280;59577;52.122;5.406;2023-12-22T08:44:05;100336.22;;;7.18;100.00
71735;BME280;59577;52.122;5.406;2023-12-22T08:46:32;100336.66;;;7.20;100.00
71735;BME280;59577;52.122;5.406;2023-12-22T08:48:59;100334.44;;;7.22;100.00
71735;BME280;59577;52.122;5.406;2023-12-22T08:51:26;100332.19;;;7.24;100.00
71735;BME280;59577;52.122;5.406;2023-12-22T08:53:54;100321.53;;;7.27;100.00
71735;BME280;59577;52.122;5.406;2023-12-22T08:56:24;100317.34;;;7.30;100.00
71735;BME280;59577;52.122;5.406;2023-12-22T08:58:51;100328.22;;;7.33;100.00
71735;BME280;59577;52.122;5.406;2023-12-22T09:01:19;100326.75;;;7.36;100.00
71735;BME280;59577;52.122;5.406;2023-12-22T09:03:46;100337.63;;;7.40;100.00
71735;BME280;59577;52.122;5.406;2023-12-22T09:06:20;100337.72;;;7.43;100.00
71735;BME280;59577;52.122;5.406;2023-12-22T09:08:47;100332.09;;;7.48;100.00
71735;BME280;59577;52.122;5.406;2023-12-22T09:11:17;100343.88;;;7.56;100.00
71735;BME280;59577;52.122;5.406;2023-12-22T09:13:43;100338.03;;;7.54;100.00
71735;BME280;59577;52.122;5.406;2023-12-22T09:16:12;100332.63;;;7.54;100.00
71735;BME280;59577;52.122;5.406;2023-12-22T09:18:41;100341.19;;;7.56;100.00
71735;BME280;59577;52.122;5.406;2023-12-22T09:21:09;100356.97;;;7.58;100.00
71735;BME280;59577;52.122;5.406;2023-12-22T09:23:35;100353.84;;;7.56;100.00
71735;BME280;59577;52.122;5.406;2023-12-22T09:26:02;100357.69;;;7.55;100.00
71735;BME280;59577;52.122;5.406;2023-12-22T09:28:28;100359.03;;;7.48;100.00
71735;BME280;59577;52.122;5.406;2023-12-22T09:30:55;100349.63;;;7.42;100.00
71735;BME280;59577;52.122;5.406;2023-12-22T09:33:21;100347.06;;;7.33;100.00
71735;BME280;59577;52.122;5.406;2023-12-22T09:35:49;100378.06;;;7.27;100.00
71735;BME280;59577;52.122;5.406;2023-12-22T09:38:17;100360.78;;;7.16;100.00
71735;BME280;59577;52.122;5.406;2023-12-22T09:40:44;100343.66;;;7.08;100.00
71735;BME280;59577;52.122;5.406;2023-12-22T09:43:14;100344.69;;;7.04;100.00
71735;BME280;59577;52.122;5.406;2023-12-22T09:45:41;100354.56;;;7.00;100.00
71735;BME280;59577;52.122;5.406;2023-12-22T09:48:08;100344.13;;;6.98;100.00
71735;BME280;59577;52.122;5.406;2023-12-22T09:50:38;100341.88;;;7.00;100.00
71735;BME280;59577;52.122;5.406;2023-12-22T09:53:06;100333.13;;;7.03;100.00
71735;BME280;59577;52.122;5.406;2023-12-22T09:55:34;100334.00;;;7.07;100.00
71735;BME280;59577;52.122;5.406;2023-12-22T09:58:02;100338.38;;;7.12;100.00
71735;BME280;59577;52.122;5.406;2023-12-22T10:00:31;100332.44;;;7.19;100.00
71735;BME280;59577;52.122;5.406;2023-12-22T10:02:57;100324.56;;;7.26;100.00
71735;BME280;59577;52.122;5.406;2023-12-22T10:05:24;100344.84;;;7.36;100.00
71735;BME280;59577;52.122;5.406;2023-12-22T10:07:51;100343.56;;;7.45;100.00
71735;BME280;59577;52.122;5.406;2023-12-22T10:10:19;100338.13;;;7.58;100.00
71735;BME280;59577;52.122;5.406;2023-12-22T10:12:46;100342.13;;;7.64;100.00
71735;BME280;59577;52.122;5.406;2023-12-22T10:15:14;100333.91;;;7.72;100.00
71735;BME280;59577;52.122;5.406;2023-12-22T10:17:40;100344.19;;;7.83;100.00
71735;BME280;59577;52.122;5.406;2023-12-22T10:20:08;100342.34;;;7.87;100.00
71735;BME280;59577;52.122;5.406;2023-12-22T10:22:35;100335.41;;;7.86;100.00
71735;BME280;59577;52.122;5.406;2023-12-22T10:25:01;100339.66;;;7.87;100.00
71735;BME280;59577;52.122;5.406;2023-12-22T10:27:29;100352.88;;;7.92;100.00
71735;BME280;59577;52.122;5.406;2023-12-22T10:29:56;100346.38;;;7.93;100.00
71735;BME280;59577;52.122;5.406;2023-12-22T10:32:23;100341.00;;;7.93;100.00
71735;BME280;59577;52.122;5.406;2023-12-22T10:34:53;100336.81;;;7.96;100.00
71735;BME280;59577;52.122;5.406;2023-12-22T10:37:20;100326.81;;;7.96;100.00
71735;BME280;59577;52.122;5.406;2023-12-22T10:39:52;100343.59;;;8.05;100.00
71735;BME280;59577;52.122;5.406;2023-12-22T10:42:18;100353.69;;;8.08;100.00
71735;BME280;59577;52.122;5.406;2023-12-22T10:44:45;100350.19;;;8.08;100.00
71735;BME280;59577;52.122;5.406;2023-12-22T10:47:13;100351.44;;;8.10;100.00
71735;BME280;59577;52.122;5.406;2023-12-22T10:49:40;100351.53;;;8.14;100.00
71735;BME280;59577;52.122;5.406;2023-12-22T10:52:11;100355.81;;;8.15;100.00
71735;BME280;59577;52.122;5.406;2023-12-22T10:54:41;100353.19;;;8.19;100.00
71735;BME280;59577;52.122;5.406;2023-12-22T10:57:09;100352.94;;;8.24;100.00
71735;BME280;59577;52.122;5.406;2023-12-22T10:59:40;100359.63;;;8.30;100.00
71735;BME280;59577;52.122;5.406;2023-12-22T11:02:27;100343.19;;;8.35;100.00
71735;BME280;59577;52.122;5.406;2023-12-22T11:05:00;100340.91;;;8.37;100.00
71735;BME280;59577;52.122;5.406;2023-12-22T11:07:29;100336.31;;;8.38;100.00
71735;BME280;59577;52.122;5.406;2023-12-22T11:10:04;100325.63;;;8.41;100.00
71735;BME280;59577;52.122;5.406;2023-12-22T11:12:38;100337.72;;;8.47;100.00
71735;BME280;59577;52.122;5.406;2023-12-22T11:15:05;100332.78;;;8.50;100.00
71735;BME280;59577;52.122;5.406;2023-12-22T11:17:33;100336.69;;;8.52;100.00
71735;BME280;59577;52.122;5.406;2023-12-22T11:20:12;100335.66;;;8.57;100.00
71735;BME280;59577;52.122;5.406;2023-12-22T11:22:40;100326.41;;;8.58;100.00
71735;BME280;59577;52.122;5.406;2023-12-22T11:25:08;100334.91;;;8.60;100.00
71735;BME280;59577;52.122;5.406;2023-12-22T11:27:41;100326.75;;;8.56;100.00
71735;BME280;59577;52.122;5.406;2023-12-22T11:30:09;100324.78;;;8.53;100.00
71735;BME280;59577;52.122;5.406;2023-12-22T11:32:39;100326.31;;;8.54;100.00
71735;BME280;59577;52.122;5.406;2023-12-22T11:35:06;100329.09;;;8.58;100.00
71735;BME280;59577;52.122;5.406;2023-12-22T11:37:35;100319.19;;;8.62;100.00
71735;BME280;59577;52.122;5.406;2023-12-22T11:40:02;100318.56;;;8.69;100.00
71735;BME280;59577;52.122;5.406;2023-12-22T11:42:31;100323.25;;;8.72;100.00
71735;BME280;59577;52.122;5.406;2023-12-22T11:45:00;100314.44;;;8.75;100.00
71735;BME280;59577;52.122;5.406;2023-12-22T11:47:27;100321.50;;;8.79;100.00
71735;BME280;59577;52.122;5.406;2023-12-22T11:49:55;100304.22;;;8.84;100.00
71735;BME280;59577;52.122;5.406;2023-12-22T11:52:26;100311.97;;;8.85;100.00
71735;BME280;59577;52.122;5.406;2023-12-22T11:54:56;100310.50;;;8.88;100.00
71735;BME280;59577;52.122;5.406;2023-12-22T11:57:38;100303.19;;;8.89;100.00
71735;BME280;59577;52.122;5.406;2023-12-22T12:00:06;100306.66;;;8.89;100.00
71735;BME280;59577;52.122;5.406;2023-12-22T12:02:35;100301.25;;;8.89;100.00
71735;BME280;59577;52.122;5.406;2023-12-22T12:05:02;100301.63;;;8.88;100.00
71735;BME280;59577;52.122;5.406;2023-12-22T12:10:03;100290.84;;;8.88;100.00
71735;BME280;59577;52.122;5.406;2023-12-22T12:12:29;100274.66;;;8.88;100.00
71735;BME280;59577;52.122;5.406;2023-12-22T12:14:58;100276.91;;;8.85;100.00
71735;BME280;59577;52.122;5.406;2023-12-22T12:17:33;100266.97;;;8.90;100.00
71735;BME280;59577;52.122;5.406;2023-12-22T12:20:06;100276.28;;;8.92;100.00
71735;BME280;59577;52.122;5.406;2023-12-22T12:22:33;100276.28;;;8.92;100.00
71735;BME280;59577;52.122;5.406;2023-12-22T12:25:01;100280.97;;;8.95;100.00
71735;BME280;59577;52.122;5.406;2023-12-22T12:27:27;100280.97;;;8.95;100.00
71735;BME280;59577;52.122;5.406;2023-12-22T12:29:54;100271.38;;;8.98;100.00
71735;BME280;59577;52.122;5.406;2023-12-22T12:32:23;100281.09;;;9.02;100.00
71735;BME280;59577;52.122;5.406;2023-12-22T12:34:50;100281.59;;;9.08;100.00
71735;BME280;59577;52.122;5.406;2023-12-22T12:37:19;100267.47;;;9.15;100.00
71735;BME280;59577;52.122;5.406;2023-12-22T12:39:48;100270.97;;;9.15;100.00
71735;BME280;59577;52.122;5.406;2023-12-22T12:42:19;100264.41;;;9.16;100.00
71735;BME280;59577;52.122;5.406;2023-12-22T12:44:48;100264.41;;;9.16;100.00
71735;BME280;59577;52.122;5.406;2023-12-22T12:47:15;100266.00;;;9.17;100.00
71735;BME280;59577;52.122;5.406;2023-12-22T12:49:43;100273.66;;;9.15;100.00
71735;BME280;59577;52.122;5.406;2023-12-22T12:52:13;100263.66;;;9.16;100.00
71735;BME280;59577;52.122;5.406;2023-12-22T12:54:40;100282.47;;;9.12;100.00